Terminal Aerodrome Forecast
Issued by NWS

Home | Current Version | Previous Version | Text Only | Print | Product List | Glossary On
Versions: 1 2 3 4 5 6 7 8 9 10 11 12 13 14 15 16 17 18 19 20 21 22 23 24 25 26 27 28 29 30 31 32 33 34 35 36
000
FTUS44 KMAF 181126
TAFHOB
TAF
KHOB 181126Z 1812/1912 22011KT P6SM SCT200
     FM181500 23013G21KT P6SM FEW200
     FM181800 26025G35KT P6SM SCT200
     FM182100 28031G41KT 6SM BLDU SCT200
     FM190200 31030G40KT P6SM SCT200
     FM191000 33018KT P6SM SCT100=

USA.gov is the U.S. government's official web portal to all federal, state and local government web resources and services.